sensor_id;sensor_type;location;lat;lon;timestamp;P1;durP1;ratioP1;P2;durP2;ratioP2
1164;SDS011;571;50.930;6.926;2023-03-01T03:47:37;13.60;;;8.83;;
1164;SDS011;571;50.930;6.926;2023-03-01T03:50:04;8.47;;;7.67;;
1164;SDS011;571;50.930;6.926;2023-03-01T03:52:31;7.80;;;6.90;;
1164;SDS011;571;50.930;6.926;2023-03-01T03:54:58;9.53;;;7.63;;
1164;SDS011;571;50.930;6.926;2023-03-01T03:57:24;8.97;;;8.03;;
1164;SDS011;571;50.930;6.926;2023-03-01T03:59:51;10.20;;;7.50;;
1164;SDS011;571;50.930;6.926;2023-03-01T04:02:18;8.67;;;7.80;;
1164;SDS011;571;50.930;6.926;2023-03-01T04:04:50;9.83;;;8.27;;
1164;SDS011;571;50.930;6.926;2023-03-01T04:07:17;9.13;;;7.87;;
1164;SDS011;571;50.930;6.926;2023-03-01T04:09:44;9.67;;;8.73;;
1164;SDS011;571;50.930;6.926;2023-03-01T04:12:10;11.40;;;9.07;;
1164;SDS011;571;50.930;6.926;2023-03-01T04:14:37;10.17;;;8.47;;
1164;SDS011;571;50.930;6.926;2023-03-01T04:17:03;12.67;;;8.30;;
1164;SDS011;571;50.930;6.926;2023-03-01T04:19:30;12.57;;;9.90;;
1164;SDS011;571;50.930;6.926;2023-03-01T04:22:02;12.03;;;8.20;;
1164;SDS011;571;50.930;6.926;2023-03-01T04:24:34;11.00;;;8.00;;
1164;SDS011;571;50.930;6.926;2023-03-01T04:27:01;10.30;;;8.70;;
1164;SDS011;571;50.930;6.926;2023-03-01T04:29:28;15.13;;;9.20;;
1164;SDS011;571;50.930;6.926;2023-03-01T04:31:55;12.13;;;9.90;;
1164;SDS011;571;50.930;6.926;2023-03-01T04:34:22;9.20;;;7.67;;
1164;SDS011;571;50.930;6.926;2023-03-01T04:36:48;10.73;;;8.50;;
1164;SDS011;571;50.930;6.926;2023-03-01T04:39:16;13.17;;;10.07;;
1164;SDS011;571;50.930;6.926;2023-03-01T04:41:43;9.87;;;8.87;;
1164;SDS011;571;50.930;6.926;2023-03-01T04:44:10;12.23;;;8.90;;
1164;SDS011;571;50.930;6.926;2023-03-01T04:46:37;11.33;;;9.50;;
1164;SDS011;571;50.930;6.926;2023-03-01T04:49:04;10.93;;;9.47;;
1164;SDS011;571;50.930;6.926;2023-03-01T04:51:31;11.90;;;9.30;;
1164;SDS011;571;50.930;6.926;2023-03-01T04:53:58;12.90;;;10.20;;
1164;SDS011;571;50.930;6.926;2023-03-01T04:56:27;15.50;;;11.73;;
1164;SDS011;571;50.930;6.926;2023-03-01T04:58:54;16.70;;;10.80;;
1164;SDS011;571;50.930;6.926;2023-03-01T05:01:20;10.17;;;9.10;;
1164;SDS011;571;50.930;6.926;2023-03-01T05:03:48;13.60;;;9.70;;
1164;SDS011;571;50.930;6.926;2023-03-01T05:06:16;13.33;;;10.97;;
1164;SDS011;571;50.930;6.926;2023-03-01T05:08:43;14.60;;;9.33;;
1164;SDS011;571;50.930;6.926;2023-03-01T05:11:10;11.73;;;9.50;;
1164;SDS011;571;50.930;6.926;2023-03-01T05:13:39;11.50;;;9.30;;
1164;SDS011;571;50.930;6.926;2023-03-01T05:16:07;19.63;;;11.67;;
1164;SDS011;571;50.930;6.926;2023-03-01T05:18:36;13.10;;;10.30;;
1164;SDS011;571;50.930;6.926;2023-03-01T05:21:03;16.77;;;10.87;;
1164;SDS011;571;50.930;6.926;2023-03-01T05:23:31;12.27;;;10.67;;
1164;SDS011;571;50.930;6.926;2023-03-01T05:25:59;12.90;;;10.90;;
1164;SDS011;571;50.930;6.926;2023-03-01T05:28:28;13.00;;;9.00;;
1164;SDS011;571;50.930;6.926;2023-03-01T05:30:57;13.17;;;10.60;;
1164;SDS011;571;50.930;6.926;2023-03-01T05:33:24;13.83;;;10.40;;
1164;SDS011;571;50.930;6.926;2023-03-01T05:35:52;14.30;;;10.73;;
1164;SDS011;571;50.930;6.926;2023-03-01T05:38:19;14.20;;;11.27;;
1164;SDS011;571;50.930;6.926;2023-03-01T05:40:47;13.67;;;11.10;;
1164;SDS011;571;50.930;6.926;2023-03-01T05:43:15;15.60;;;12.40;;
1164;SDS011;571;50.930;6.926;2023-03-01T05:45:43;16.33;;;11.90;;
1164;SDS011;571;50.930;6.926;2023-03-01T05:48:11;12.30;;;10.87;;
1164;SDS011;571;50.930;6.926;2023-03-01T05:50:39;13.17;;;11.67;;
1164;SDS011;571;50.930;6.926;2023-03-01T05:53:08;12.37;;;11.03;;
1164;SDS011;571;50.930;6.926;2023-03-01T05:55:37;11.77;;;9.80;;
1164;SDS011;571;50.930;6.926;2023-03-01T05:58:05;15.87;;;11.13;;
1164;SDS011;571;50.930;6.926;2023-03-01T06:00:33;12.30;;;11.00;;
1164;SDS011;571;50.930;6.926;2023-03-01T06:03:00;14.53;;;11.33;;
1164;SDS011;571;50.930;6.926;2023-03-01T06:05:29;14.30;;;11.10;;
1164;SDS011;571;50.930;6.926;2023-03-01T06:07:58;19.33;;;10.73;;
1164;SDS011;571;50.930;6.926;2023-03-01T06:10:25;12.33;;;10.77;;
1164;SDS011;571;50.930;6.926;2023-03-01T06:12:52;13.73;;;10.40;;
1164;SDS011;571;50.930;6.926;2023-03-01T06:15:20;11.70;;;10.00;;
1164;SDS011;571;50.930;6.926;2023-03-01T06:17:46;11.20;;;9.83;;
1164;SDS011;571;50.930;6.926;2023-03-01T06:20:14;18.37;;;11.40;;
1164;SDS011;571;50.930;6.926;2023-03-01T06:22:43;12.53;;;10.90;;
1164;SDS011;571;50.930;6.926;2023-03-01T06:25:11;12.60;;;10.57;;
1164;SDS011;571;50.930;6.926;2023-03-01T06:27:39;16.47;;;10.57;;
1164;SDS011;571;50.930;6.926;2023-03-01T06:30:06;19.00;;;11.80;;
1164;SDS011;571;50.930;6.926;2023-03-01T06:32:38;18.00;;;11.87;;
1164;SDS011;571;50.930;6.926;2023-03-01T06:35:07;17.60;;;10.47;;
1164;SDS011;571;50.930;6.926;2023-03-01T06:37:34;12.67;;;11.37;;
1164;SDS011;571;50.930;6.926;2023-03-01T06:40:02;14.70;;;11.70;;
1164;SDS011;571;50.930;6.926;2023-03-01T06:42:33;15.20;;;11.93;;
1164;SDS011;571;50.930;6.926;2023-03-01T06:44:59;12.67;;;10.93;;
1164;SDS011;571;50.930;6.926;2023-03-01T06:47:26;14.83;;;11.27;;
1164;SDS011;571;50.930;6.926;2023-03-01T06:49:53;13.13;;;11.77;;
1164;SDS011;571;50.930;6.926;2023-03-01T06:52:19;13.97;;;10.47;;
1164;SDS011;571;50.930;6.926;2023-03-01T06:54:46;14.53;;;11.73;;
1164;SDS011;571;50.930;6.926;2023-03-01T06:57:14;20.40;;;11.20;;
1164;SDS011;571;50.930;6.926;2023-03-01T06:59:41;16.00;;;10.70;;
1164;SDS011;571;50.930;6.926;2023-03-01T07:02:09;14.07;;;10.70;;
1164;SDS011;571;50.930;6.926;2023-03-01T07:04:36;15.17;;;11.63;;
1164;SDS011;571;50.930;6.926;2023-03-01T07:07:03;16.43;;;12.33;;
1164;SDS011;571;50.930;6.926;2023-03-01T07:09:29;14.27;;;12.67;;
1164;SDS011;571;50.930;6.926;2023-03-01T07:11:56;16.50;;;11.67;;
1164;SDS011;571;50.930;6.926;2023-03-01T07:14:25;22.47;;;13.27;;
1164;SDS011;571;50.930;6.926;2023-03-01T07:16:52;14.57;;;11.97;;
1164;SDS011;571;50.930;6.926;2023-03-01T07:19:19;21.83;;;12.60;;
1164;SDS011;571;50.930;6.926;2023-03-01T07:21:45;14.80;;;12.07;;
1164;SDS011;571;50.930;6.926;2023-03-01T07:24:12;16.70;;;13.47;;
1164;SDS011;571;50.930;6.926;2023-03-01T07:26:39;16.20;;;12.47;;
1164;SDS011;571;50.930;6.926;2023-03-01T07:29:07;14.70;;;11.40;;
1164;SDS011;571;50.930;6.926;2023-03-01T07:31:37;18.47;;;12.30;;
1164;SDS011;571;50.930;6.926;2023-03-01T07:34:04;18.00;;;12.30;;
1164;SDS011;571;50.930;6.926;2023-03-01T07:36:30;20.17;;;12.83;;
1164;SDS011;571;50.930;6.926;2023-03-01T07:38:57;17.40;;;12.30;;
1164;SDS011;571;50.930;6.926;2023-03-01T07:41:27;13.50;;;12.13;;
1164;SDS011;571;50.930;6.926;2023-03-01T07:43:54;16.40;;;13.00;;
1164;SDS011;571;50.930;6.926;2023-03-01T07:46:20;14.40;;;11.27;;
1164;SDS011;571;50.930;6.926;2023-03-01T07:48:49;16.37;;;12.10;;
1164;SDS011;571;50.930;6.926;2023-03-01T07:51:15;18.70;;;12.33;;
1164;SDS011;571;50.930;6.926;2023-03-01T07:53:42;13.87;;;11.50;;
1164;SDS011;571;50.930;6.926;2023-03-01T07:56:12;14.13;;;11.27;;
1164;SDS011;571;50.930;6.926;2023-03-01T07:58:43;14.70;;;11.97;;
1164;SDS011;571;50.930;6.926;2023-03-01T08:01:11;12.60;;;11.30;;
1164;SDS011;571;50.930;6.926;2023-03-01T08:03:39;17.03;;;12.13;;
1164;SDS011;571;50.930;6.926;2023-03-01T08:06:08;17.33;;;11.60;;
1164;SDS011;571;50.930;6.926;2023-03-01T08:08:36;17.63;;;12.47;;
1164;SDS011;571;50.930;6.926;2023-03-01T08:11:04;22.07;;;11.93;;
1164;SDS011;571;50.930;6.926;2023-03-01T08:13:32;13.93;;;12.10;;
1164;SDS011;571;50.930;6.926;2023-03-01T08:16:02;16.00;;;12.00;;
1164;SDS011;571;50.930;6.926;2023-03-01T08:18:30;19.33;;;12.10;;
1164;SDS011;571;50.930;6.926;2023-03-01T08:21:00;17.57;;;11.60;;
1164;SDS011;571;50.930;6.926;2023-03-01T08:23:29;13.40;;;11.90;;
1164;SDS011;571;50.930;6.926;2023-03-01T08:26:02;15.73;;;10.93;;
1164;SDS011;571;50.930;6.926;2023-03-01T08:28:31;13.33;;;10.27;;
1164;SDS011;571;50.930;6.926;2023-03-01T08:30:57;19.73;;;11.70;;
1164;SDS011;571;50.930;6.926;2023-03-01T08:33:24;17.13;;;11.63;;
1164;SDS011;571;50.930;6.926;2023-03-01T08:35:51;15.47;;;11.23;;
1164;SDS011;571;50.930;6.926;2023-03-01T08:38:17;19.13;;;13.30;;
1164;SDS011;571;50.930;6.926;2023-03-01T08:40:45;14.43;;;12.80;;
1164;SDS011;571;50.930;6.926;2023-03-01T08:43:12;13.73;;;10.83;;
1164;SDS011;571;50.930;6.926;2023-03-01T08:45:39;16.93;;;12.10;;
1164;SDS011;571;50.930;6.926;2023-03-01T08:48:05;14.00;;;11.47;;
1164;SDS011;571;50.930;6.926;2023-03-01T08:50:32;14.47;;;9.70;;
1164;SDS011;571;50.930;6.926;2023-03-01T08:52:59;14.70;;;12.63;;
1164;SDS011;571;50.930;6.926;2023-03-01T08:55:25;17.90;;;12.20;;
1164;SDS011;571;50.930;6.926;2023-03-01T08:57:53;15.93;;;10.83;;
1164;SDS011;571;50.930;6.926;2023-03-01T09:00:24;12.83;;;11.53;;
1164;SDS011;571;50.930;6.926;2023-03-01T09:02:50;16.30;;;11.90;;
1164;SDS011;571;50.930;6.926;2023-03-01T09:05:17;15.40;;;10.80;;
1164;SDS011;571;50.930;6.926;2023-03-01T09:07:44;11.73;;;10.07;;
1164;SDS011;571;50.930;6.926;2023-03-01T09:10:10;15.53;;;12.13;;
1164;SDS011;571;50.930;6.926;2023-03-01T09:12:37;16.37;;;11.77;;
1164;SDS011;571;50.930;6.926;2023-03-01T09:15:06;16.50;;;12.07;;
1164;SDS011;571;50.930;6.926;2023-03-01T09:17:33;16.73;;;11.57;;
1164;SDS011;571;50.930;6.926;2023-03-01T09:20:00;13.03;;;10.50;;
1164;SDS011;571;50.930;6.926;2023-03-01T09:22:28;12.70;;;10.50;;
1164;SDS011;571;50.930;6.926;2023-03-01T09:24:54;19.27;;;11.97;;
1164;SDS011;571;50.930;6.926;2023-03-01T09:27:24;13.87;;;10.20;;
1164;SDS011;571;50.930;6.926;2023-03-01T09:29:50;14.20;;;11.37;;
1164;SDS011;571;50.930;6.926;2023-03-01T09:32:18;11.73;;;10.67;;
1164;SDS011;571;50.930;6.926;2023-03-01T09:34:45;14.10;;;9.70;;
1164;SDS011;571;50.930;6.926;2023-03-01T09:37:29;14.30;;;10.80;;
1164;SDS011;571;50.930;6.926;2023-03-01T09:39:57;14.40;;;10.00;;
1164;SDS011;571;50.930;6.926;2023-03-01T09:42:24;15.40;;;12.20;;
1164;SDS011;571;50.930;6.926;2023-03-01T09:44:52;13.73;;;11.37;;
1164;SDS011;571;50.930;6.926;2023-03-01T09:47:24;15.53;;;11.27;;
1164;SDS011;571;50.930;6.926;2023-03-01T09:49:57;11.70;;;10.53;;
1164;SDS011;571;50.930;6.926;2023-03-01T09:52:29;12.30;;;10.43;;
1164;SDS011;571;50.930;6.926;2023-03-01T09:55:00;11.57;;;9.33;;
1164;SDS011;571;50.930;6.926;2023-03-01T09:57:28;11.70;;;10.40;;
1164;SDS011;571;50.930;6.926;2023-03-01T10:00:01;12.03;;;9.90;;
1164;SDS011;571;50.930;6.926;2023-03-01T10:02:45;14.17;;;9.87;;
1164;SDS011;571;50.930;6.926;2023-03-01T10:05:20;12.17;;;10.00;;
1164;SDS011;571;50.930;6.926;2023-03-01T10:07:58;10.07;;;9.10;;
1164;SDS011;571;50.930;6.926;2023-03-01T10:10:40;14.27;;;9.23;;
1164;SDS011;571;50.930;6.926;2023-03-01T10:13:13;10.57;;;9.50;;
1164;SDS011;571;50.930;6.926;2023-03-01T10:15:47;12.50;;;9.73;;
1164;SDS011;571;50.930;6.926;2023-03-01T10:18:21;10.60;;;9.60;;
1164;SDS011;571;50.930;6.926;2023-03-01T10:20:52;10.80;;;9.67;;
1164;SDS011;571;50.930;6.926;2023-03-01T10:23:22;13.03;;;9.90;;
1164;SDS011;571;50.930;6.926;2023-03-01T10:25:53;12.57;;;11.13;;
1164;SDS011;571;50.930;6.926;2023-03-01T10:28:37;12.70;;;9.80;;
1164;SDS011;571;50.930;6.926;2023-03-01T10:31:13;10.83;;;9.40;;
1164;SDS011;571;50.930;6.926;2023-03-01T10:33:44;11.13;;;10.00;;
1164;SDS011;571;50.930;6.926;2023-03-01T10:36:12;11.90;;;10.57;;
1164;SDS011;571;50.930;6.926;2023-03-01T10:38:49;12.73;;;9.73;;
1164;SDS011;571;50.930;6.926;2023-03-01T10:41:19;12.40;;;10.03;;
1164;SDS011;571;50.930;6.926;2023-03-01T10:43:48;15.30;;;9.53;;
1164;SDS011;571;50.930;6.926;2023-03-01T10:46:22;15.40;;;11.80;;
1164;SDS011;571;50.930;6.926;2023-03-01T10:49:04;11.00;;;9.80;;
1164;SDS011;571;50.930;6.926;2023-03-01T10:51:33;14.63;;;10.40;;
1164;SDS011;571;50.930;6.926;2023-03-01T10:53:59;16.63;;;12.23;;
1164;SDS011;571;50.930;6.926;2023-03-01T10:56:27;11.77;;;10.00;;
1164;SDS011;571;50.930;6.926;2023-03-01T10:58:59;10.90;;;9.80;;
1164;SDS011;571;50.930;6.926;2023-03-01T11:01:27;10.17;;;8.60;;
1164;SDS011;571;50.930;6.926;2023-03-01T11:04:09;10.70;;;9.57;;
1164;SDS011;571;50.930;6.926;2023-03-01T11:06:38;13.33;;;9.70;;
1164;SDS011;571;50.930;6.926;2023-03-01T11:09:13;8.90;;;8.00;;
1164;SDS011;571;50.930;6.926;2023-03-01T11:11:40;11.87;;;8.70;;
1164;SDS011;571;50.930;6.926;2023-03-01T11:14:13;10.90;;;8.53;;
1164;SDS011;571;50.930;6.926;2023-03-01T11:16:44;14.17;;;10.57;;
1164;SDS011;571;50.930;6.926;2023-03-01T11:19:17;16.50;;;10.50;;
1164;SDS011;571;50.930;6.926;2023-03-01T11:21:54;14.53;;;10.60;;
1164;SDS011;571;50.930;6.926;2023-03-01T11:24:31;12.30;;;10.27;;
1164;SDS011;571;50.930;6.926;2023-03-01T11:27:03;11.33;;;10.10;;
1164;SDS011;571;50.930;6.926;2023-03-01T11:29:38;12.53;;;10.00;;
1164;SDS011;571;50.930;6.926;2023-03-01T11:32:08;11.73;;;10.57;;
1164;SDS011;571;50.930;6.926;2023-03-01T11:34:40;10.17;;;8.97;;
1164;SDS011;571;50.930;6.926;2023-03-01T11:37:24;12.83;;;10.00;;
1164;SDS011;571;50.930;6.926;2023-03-01T11:39:59;11.87;;;10.67;;
1164;SDS011;571;50.930;6.926;2023-03-01T11:42:40;12.43;;;10.27;;
1164;SDS011;571;50.930;6.926;2023-03-01T11:45:14;15.57;;;10.23;;
1164;SDS011;571;50.930;6.926;2023-03-01T11:50:41;11.87;;;9.70;;
1164;SDS011;571;50.930;6.926;2023-03-01T11:53:17;13.27;;;9.57;;
1164;SDS011;571;50.930;6.926;2023-03-01T11:55:56;12.43;;;10.87;;
1164;SDS011;571;50.930;6.926;2023-03-01T11:58:35;11.93;;;10.03;;
1164;SDS011;571;50.930;6.926;2023-03-01T12:01:21;12.13;;;10.50;;
1164;SDS011;571;50.930;6.926;2023-03-01T12:04:02;10.67;;;9.73;;
1164;SDS011;571;50.930;6.926;2023-03-01T12:06:57;12.30;;;10.70;;
1164;SDS011;571;50.930;6.926;2023-03-01T12:09:40;11.07;;;9.13;;
1164;SDS011;571;50.930;6.926;2023-03-01T12:12:27;11.40;;;10.27;;
1164;SDS011;571;50.930;6.926;2023-03-01T12:15:15;9.87;;;8.87;;
1164;SDS011;571;50.930;6.926;2023-03-01T12:18:08;9.90;;;8.90;;
1164;SDS011;571;50.930;6.926;2023-03-01T12:20:51;12.60;;;9.60;;
1164;SDS011;571;50.930;6.926;2023-03-01T12:26:41;11.07;;;10.07;;
1164;SDS011;571;50.930;6.926;2023-03-01T12:29:20;13.43;;;10.10;;
1164;SDS011;571;50.930;6.926;2023-03-01T12:31:56;10.67;;;9.57;;
1164;SDS011;571;50.930;6.926;2023-03-01T12:34:55;11.23;;;10.07;;
1164;SDS011;571;50.930;6.926;2023-03-01T12:37:51;10.90;;;8.97;;
1164;SDS011;571;50.930;6.926;2023-03-01T12:40:26;10.20;;;9.10;;
1164;SDS011;571;50.930;6.926;2023-03-01T12:43:04;9.80;;;8.70;;
1164;SDS011;571;50.930;6.926;2023-03-01T12:45:44;11.87;;;9.10;;
1164;SDS011;571;50.930;6.926;2023-03-01T12:48:25;11.10;;;9.23;;
1164;SDS011;571;50.930;6.926;2023-03-01T12:51:06;10.53;;;8.80;;
1164;SDS011;571;50.930;6.926;2023-03-01T12:53:38;9.63;;;8.63;;
1164;SDS011;571;50.930;6.926;2023-03-01T12:56:08;10.60;;;9.00;;
1164;SDS011;571;50.930;6.926;2023-03-01T12:58:41;13.00;;;10.20;;
1164;SDS011;571;50.930;6.926;2023-03-01T13:01:16;10.37;;;9.43;;
1164;SDS011;571;50.930;6.926;2023-03-01T13:03:55;11.70;;;9.60;;
1164;SDS011;571;50.930;6.926;2023-03-01T13:06:32;9.63;;;8.77;;
1164;SDS011;571;50.930;6.926;2023-03-01T13:09:07;10.60;;;9.43;;
1164;SDS011;571;50.930;6.926;2023-03-01T13:11:41;11.10;;;10.07;;
1164;SDS011;571;50.930;6.926;2023-03-01T13:14:36;11.13;;;10.20;;
1164;SDS011;571;50.930;6.926;2023-03-01T13:19:56;11.00;;;8.87;;
1164;SDS011;571;50.930;6.926;2023-03-01T13:22:25;10.17;;;9.27;;
1164;SDS011;571;50.930;6.926;2023-03-01T13:25:00;10.93;;;9.90;;
1164;SDS011;571;50.930;6.926;2023-03-01T13:27:28;11.33;;;9.77;;
1164;SDS011;571;50.930;6.926;2023-03-01T13:29:57;15.70;;;9.50;;
1164;SDS011;571;50.930;6.926;2023-03-01T13:32:28;11.00;;;9.80;;
1164;SDS011;571;50.930;6.926;2023-03-01T13:34:58;10.63;;;9.63;;
1164;SDS011;571;50.930;6.926;2023-03-01T13:37:26;10.20;;;9.23;;
1164;SDS011;571;50.930;6.926;2023-03-01T13:43:14;11.40;;;9.60;;
1164;SDS011;571;50.930;6.926;2023-03-01T13:45:55;10.43;;;9.30;;
1164;SDS011;571;50.930;6.926;2023-03-01T13:48:28;12.33;;;10.13;;
1164;SDS011;571;50.930;6.926;2023-03-01T13:50:57;9.97;;;9.07;;
1164;SDS011;571;50.930;6.926;2023-03-01T13:53:28;13.77;;;8.90;;
1164;SDS011;571;50.930;6.926;2023-03-01T13:56:00;14.27;;;9.40;;
1164;SDS011;571;50.930;6.926;2023-03-01T13:58:29;14.00;;;10.43;;
1164;SDS011;571;50.930;6.926;2023-03-01T14:01:00;10.83;;;9.33;;
1164;SDS011;571;50.930;6.926;2023-03-01T14:03:29;10.53;;;9.43;;
1164;SDS011;571;50.930;6.926;2023-03-01T14:05:59;8.33;;;7.63;;
1164;SDS011;571;50.930;6.926;2023-03-01T14:08:29;8.67;;;7.80;;
1164;SDS011;571;50.930;6.926;2023-03-01T14:11:10;10.03;;;8.43;;
1164;SDS011;571;50.930;6.926;2023-03-01T14:14:02;9.50;;;8.30;;
1164;SDS011;571;50.930;6.926;2023-03-01T14:16:42;10.07;;;8.77;;
1164;SDS011;571;50.930;6.926;2023-03-01T14:19:20;9.40;;;7.87;;
1164;SDS011;571;50.930;6.926;2023-03-01T14:21:58;8.10;;;7.40;;
1164;SDS011;571;50.930;6.926;2023-03-01T14:24:28;10.03;;;7.83;;
1164;SDS011;571;50.930;6.926;2023-03-01T14:26:57;10.40;;;9.30;;
1164;SDS011;571;50.930;6.926;2023-03-01T14:29:25;10.67;;;8.23;;
1164;SDS011;571;50.930;6.926;2023-03-01T14:31:54;8.07;;;6.50;;
1164;SDS011;571;50.930;6.926;2023-03-01T14:34:21;6.80;;;6.10;;
1164;SDS011;571;50.930;6.926;2023-03-01T14:36:49;12.23;;;7.47;;
1164;SDS011;571;50.930;6.926;2023-03-01T14:39:16;9.40;;;7.50;;
1164;SDS011;571;50.930;6.926;2023-03-01T14:41:44;8.77;;;6.93;;
1164;SDS011;571;50.930;6.926;2023-03-01T14:44:12;10.00;;;8.80;;
1164;SDS011;571;50.930;6.926;2023-03-01T14:46:43;12.93;;;8.63;;
1164;SDS011;571;50.930;6.926;2023-03-01T14:49:12;9.53;;;8.23;;
1164;SDS011;571;50.930;6.926;2023-03-01T14:51:42;11.63;;;7.70;;
1164;SDS011;571;50.930;6.926;2023-03-01T14:54:23;11.90;;;8.73;;
1164;SDS011;571;50.930;6.926;2023-03-01T14:56:53;9.63;;;8.53;;
1164;SDS011;571;50.930;6.926;2023-03-01T14:59:24;12.47;;;9.23;;
1164;SDS011;571;50.930;6.926;2023-03-01T15:01:51;10.73;;;8.67;;
1164;SDS011;571;50.930;6.926;2023-03-01T15:04:22;9.83;;;8.33;;
1164;SDS011;571;50.930;6.926;2023-03-01T15:06:50;10.77;;;8.20;;
1164;SDS011;571;50.930;6.926;2023-03-01T15:09:17;14.87;;;9.80;;
1164;SDS011;571;50.930;6.926;2023-03-01T15:11:45;10.57;;;8.60;;
1164;SDS011;571;50.930;6.926;2023-03-01T15:14:25;9.40;;;8.50;;
1164;SDS011;571;50.930;6.926;2023-03-01T15:17:13;10.13;;;7.87;;
1164;SDS011;571;50.930;6.926;2023-03-01T15:19:53;8.87;;;7.97;;
1164;SDS011;571;50.930;6.926;2023-03-01T15:22:20;11.03;;;8.83;;
1164;SDS011;571;50.930;6.926;2023-03-01T15:24:47;9.63;;;8.10;;
1164;SDS011;571;50.930;6.926;2023-03-01T15:27:15;8.67;;;7.67;;
1164;SDS011;571;50.930;6.926;2023-03-01T15:29:47;11.00;;;9.33;;
1164;SDS011;571;50.930;6.926;2023-03-01T15:32:26;15.60;;;8.50;;
1164;SDS011;571;50.930;6.926;2023-03-01T15:34:56;8.20;;;7.47;;
1164;SDS011;571;50.930;6.926;2023-03-01T15:37:37;9.53;;;7.37;;
1164;SDS011;571;50.930;6.926;2023-03-01T15:40:17;9.00;;;7.03;;
1164;SDS011;571;50.930;6.926;2023-03-01T15:42:46;9.57;;;8.13;;
1164;SDS011;571;50.930;6.926;2023-03-01T15:45:21;15.37;;;8.57;;
1164;SDS011;571;50.930;6.926;2023-03-01T15:47:52;9.03;;;7.50;;
1164;SDS011;571;50.930;6.926;2023-03-01T15:50:25;11.40;;;8.23;;
1164;SDS011;571;50.930;6.926;2023-03-01T15:52:53;11.50;;;7.80;;
1164;SDS011;571;50.930;6.926;2023-03-01T15:55:21;10.07;;;7.70;;
1164;SDS011;571;50.930;6.926;2023-03-01T15:57:49;9.50;;;8.50;;
1164;SDS011;571;50.930;6.926;2023-03-01T16:00:16;8.63;;;7.50;;
1164;SDS011;571;50.930;6.926;2023-03-01T16:02:45;9.17;;;8.00;;
1164;SDS011;571;50.930;6.926;2023-03-01T16:05:19;9.53;;;8.53;;
1164;SDS011;571;50.930;6.926;2023-03-01T16:07:49;11.80;;;7.80;;
1164;SDS011;571;50.930;6.926;2023-03-01T16:10:16;8.47;;;7.57;;
1164;SDS011;571;50.930;6.926;2023-03-01T16:12:44;8.40;;;7.50;;
1164;SDS011;571;50.930;6.926;2023-03-01T16:15:13;11.63;;;8.30;;
1164;SDS011;571;50.930;6.926;2023-03-01T16:17:42;9.53;;;8.40;;
1164;SDS011;571;50.930;6.926;2023-03-01T16:20:09;8.53;;;7.20;;
1164;SDS011;571;50.930;6.926;2023-03-01T16:22:36;10.10;;;7.93;;
1164;SDS011;571;50.930;6.926;2023-03-01T16:25:05;9.77;;;7.53;;
1164;SDS011;571;50.930;6.926;2023-03-01T16:27:33;9.67;;;7.37;;
1164;SDS011;571;50.930;6.926;2023-03-01T16:29:59;8.50;;;7.40;;
1164;SDS011;571;50.930;6.926;2023-03-01T16:32:26;7.00;;;6.30;;
1164;SDS011;571;50.930;6.926;2023-03-01T16:34:53;7.73;;;6.93;;
1164;SDS011;571;50.930;6.926;2023-03-01T16:37:20;8.50;;;7.00;;
1164;SDS011;571;50.930;6.926;2023-03-01T16:39:47;8.87;;;7.97;;
1164;SDS011;571;50.930;6.926;2023-03-01T16:42:17;10.03;;;7.77;;
1164;SDS011;571;50.930;6.926;2023-03-01T16:44:44;9.23;;;7.27;;
1164;SDS011;571;50.930;6.926;2023-03-01T16:47:11;9.43;;;7.27;;
1164;SDS011;571;50.930;6.926;2023-03-01T16:49:38;9.60;;;7.10;;
1164;SDS011;571;50.930;6.926;2023-03-01T16:52:05;9.80;;;8.20;;
1164;SDS011;571;50.930;6.926;2023-03-01T16:54:32;10.20;;;6.70;;
1164;SDS011;571;50.930;6.926;2023-03-01T16:56:58;9.03;;;6.97;;
1164;SDS011;571;50.930;6.926;2023-03-01T16:59:26;7.67;;;6.97;;
1164;SDS011;571;50.930;6.926;2023-03-01T17:01:53;9.00;;;7.60;;
1164;SDS011;571;50.930;6.926;2023-03-01T17:04:20;11.90;;;7.73;;
1164;SDS011;571;50.930;6.926;2023-03-01T17:06:46;9.93;;;7.20;;
1164;SDS011;571;50.930;6.926;2023-03-01T17:09:13;8.53;;;6.80;;
1164;SDS011;571;50.930;6.926;2023-03-01T17:11:41;10.40;;;7.07;;
1164;SDS011;571;50.930;6.926;2023-03-01T17:14:08;8.93;;;6.90;;
1164;SDS011;571;50.930;6.926;2023-03-01T17:16:36;8.93;;;6.70;;
1164;SDS011;571;50.930;6.926;2023-03-01T17:19:03;7.40;;;6.10;;
1164;SDS011;571;50.930;6.926;2023-03-01T17:21:30;8.00;;;5.97;;
1164;SDS011;571;50.930;6.926;2023-03-01T17:23:57;7.20;;;6.50;;
1164;SDS011;571;50.930;6.926;2023-03-01T17:26:23;9.90;;;7.13;;
1164;SDS011;571;50.930;6.926;2023-03-01T17:28:50;7.77;;;6.73;;
1164;SDS011;571;50.930;6.926;2023-03-01T17:31:17;7.87;;;6.70;;
1164;SDS011;571;50.930;6.926;2023-03-01T17:33:46;8.50;;;7.30;;
1164;SDS011;571;50.930;6.926;2023-03-01T17:36:14;11.10;;;7.90;;
1164;SDS011;571;50.930;6.926;2023-03-01T17:38:40;9.53;;;7.40;;
1164;SDS011;571;50.930;6.926;2023-03-01T17:41:07;10.83;;;8.57;;
1164;SDS011;571;50.930;6.926;2023-03-01T17:43:36;9.40;;;6.67;;
1164;SDS011;571;50.930;6.926;2023-03-01T17:46:03;10.80;;;7.43;;
1164;SDS011;571;50.930;6.926;2023-03-01T17:48:29;10.23;;;6.10;;
1164;SDS011;571;50.930;6.926;2023-03-01T17:50:58;7.63;;;6.67;;
1164;SDS011;571;50.930;6.926;2023-03-01T17:53:24;7.50;;;6.70;;
1164;SDS011;571;50.930;6.926;2023-03-01T17:55:55;11.30;;;6.97;;
1164;SDS011;571;50.930;6.926;2023-03-01T17:58:26;10.53;;;7.20;;
1164;SDS011;571;50.930;6.926;2023-03-01T18:00:53;10.40;;;7.30;;
1164;SDS011;571;50.930;6.926;2023-03-01T18:03:20;8.57;;;6.80;;
1164;SDS011;571;50.930;6.926;2023-03-01T18:05:46;10.00;;;7.20;;
1164;SDS011;571;50.930;6.926;2023-03-01T18:08:16;8.97;;;6.10;;
1164;SDS011;571;50.930;6.926;2023-03-01T18:10:42;8.33;;;7.40;;
1164;SDS011;571;50.930;6.926;2023-03-01T18:13:09;7.43;;;6.60;;
1164;SDS011;571;50.930;6.926;2023-03-01T18:15:38;8.63;;;6.70;;
1164;SDS011;571;50.930;6.926;2023-03-01T18:18:05;9.60;;;6.83;;
1164;SDS011;571;50.930;6.926;2023-03-01T18:20:32;7.40;;;6.30;;
1164;SDS011;571;50.930;6.926;2023-03-01T18:22:59;8.70;;;6.50;;
1164;SDS011;571;50.930;6.926;2023-03-01T18:25:27;9.50;;;7.53;;
1164;SDS011;571;50.930;6.926;2023-03-01T18:27:53;10.73;;;7.03;;
1164;SDS011;571;50.930;6.926;2023-03-01T18:30:20;8.50;;;7.13;;
1164;SDS011;571;50.930;6.926;2023-03-01T18:32:47;7.70;;;7.00;;
1164;SDS011;571;50.930;6.926;2023-03-01T18:35:20;9.00;;;8.10;;
1164;SDS011;571;50.930;6.926;2023-03-01T18:37:47;10.47;;;7.73;;
1164;SDS011;571;50.930;6.926;2023-03-01T18:40:14;12.10;;;8.13;;
1164;SDS011;571;50.930;6.926;2023-03-01T18:42:42;10.43;;;7.70;;
1164;SDS011;571;50.930;6.926;2023-03-01T18:45:09;8.70;;;7.10;;
1164;SDS011;571;50.930;6.926;2023-03-01T18:47:38;15.40;;;8.90;;
1164;SDS011;571;50.930;6.926;2023-03-01T18:50:05;9.30;;;8.30;;
1164;SDS011;571;50.930;6.926;2023-03-01T18:52:32;12.43;;;7.23;;
1164;SDS011;571;50.930;6.926;2023-03-01T18:54:59;9.40;;;6.83;;
1164;SDS011;571;50.930;6.926;2023-03-01T18:57:25;10.17;;;8.73;;
1164;SDS011;571;50.930;6.926;2023-03-01T18:59:54;12.10;;;7.70;;
1164;SDS011;571;50.930;6.926;2023-03-01T19:02:20;9.27;;;7.73;;
1164;SDS011;571;50.930;6.926;2023-03-01T19:04:48;10.60;;;8.43;;
1164;SDS011;571;50.930;6.926;2023-03-01T19:07:15;12.70;;;8.67;;
1164;SDS011;571;50.930;6.926;2023-03-01T19:09:42;11.90;;;9.10;;
1164;SDS011;571;50.930;6.926;2023-03-01T19:12:09;11.40;;;9.17;;
1164;SDS011;571;50.930;6.926;2023-03-01T19:14:35;8.93;;;7.90;;
1164;SDS011;571;50.930;6.926;2023-03-01T19:17:03;15.83;;;9.60;;
1164;SDS011;571;50.930;6.926;2023-03-01T19:19:30;13.70;;;7.67;;
1164;SDS011;571;50.930;6.926;2023-03-01T19:21:57;13.13;;;8.60;;
1164;SDS011;571;50.930;6.926;2023-03-01T19:24:23;13.43;;;8.90;;
1164;SDS011;571;50.930;6.926;2023-03-01T19:26:52;9.03;;;8.10;;
1164;SDS011;571;50.930;6.926;2023-03-01T19:29:19;10.60;;;8.37;;